Terminal Aerodrome Forecast
Issued by NWS Blacksburg, VA

Home | Current Version | Previous Version | Text Only | Print | Product List | Glossary On
Versions: 1 2 3 4 5 6 7 8 9 10 11 12 13 14
000
FTUS41 KRNK 201721
TAFDAN
TAF
KDAN 201721Z 2018/2118 04012G22KT P6SM BKN250
     FM210000 05009KT P6SM SCT250
     FM210600 03005KT P6SM SKC=

USA.gov is the U.S. government's official web portal to all federal, state and local government web resources and services.